Latest Weather Observations for Inglewood

IDQ60801

Issued at 6:05 pm EST Tuesday 23 September 2014 (issued every 30 minutes, with the page automatically refreshed every 10 minutes)

About weather observations | Map of weather stations | Latest weather observations for QLD | Other Formats
Station Details ID: 041097 Name: INGLEWOOD FOREST Lat: -28.34 Lon: 150.94 Height: 379.0 m
Data from the previous 72 hours. | See also: Recent months at Inglewood
Date/Time
EST
Temp
°C
App
Temp
°C
Dew
Point
Rel
Hum
%
Delta-T
°C
Wind Press
QNH
hPa
Press
MSL
hPa
Rain
since 9 am
mm
Dir
 
Spd
km/h
Gust
km/h
Spd
kts
Gust
kts
23/06:00pm - - - - - ENE 11 15 6 8 - - 0.0
23/05:30pm - - - - - NE 13 17 7 9 - - 0.0
23/05:00pm - - - - - ENE 13 26 7 14 - - 0.0
23/04:30pm - - - - - ENE 13 24 7 13 - - 0.0
23/04:00pm - - - - - ENE 13 26 7 14 - - 0.0
23/03:30pm - - - - - E 20 30 11 16 - - 0.0
23/03:00pm - - - - - NE 13 22 7 12 - - 0.0
23/02:30pm - - - - - ENE 13 22 7 12 - - 0.0
23/02:00pm - - - - - E 17 28 9 15 - - 0.0
23/01:30pm - - - - - E 13 24 7 13 - - 0.0
23/01:00pm - - - - - NE 15 33 8 18 - - 0.0
23/12:30pm - - - - - NE 19 30 10 16 - - 0.0
23/12:00pm - - - - - ENE 19 32 10 17 - - 0.0
23/11:30am - - - - - NNE 17 30 9 16 - - 0.0
23/11:00am - - - - - N 13 19 7 10 - - 0.0
23/10:30am - - - - - E 13 33 7 18 - - 0.0
23/10:00am - - - - - ENE 19 32 10 17 - - 0.0
23/09:30am - - - - - ENE 19 37 10 20 - - 0.0
23/09:00am - - - - - ENE 17 30 9 16 - - 0.0
23/08:30am - - - - - ENE 17 26 9 14 - - 0.0
23/08:00am - - - - - E 19 33 10 18 - - 0.0
23/07:30am - - - - - ENE 19 37 10 20 - - 0.0
23/07:00am - - - - - E 17 26 9 14 - - 0.0
23/06:30am - - - - - E 15 20 8 11 - - 0.0
23/06:00am - - - - - E 15 20 8 11 - - 0.0
23/05:30am - - - - - E 15 20 8 11 - - 0.0
23/05:00am - - - - - E 15 20 8 11 - - 0.0
23/04:30am - - - - - E 11 20 6 11 - - 0.0
23/04:00am - - - - - E 13 19 7 10 - - 0.0
23/03:30am - - - - - ENE 11 17 6 9 - - 0.0
23/03:00am - - - - - ENE 11 17 6 9 - - 0.0
23/02:30am - - - - - ENE 9 13 5 7 - - 0.0
23/02:00am - - - - - ENE 11 13 6 7 - - 0.0
23/01:30am - - - - - ENE 11 17 6 9 - - 0.0
23/01:00am - - - - - ENE 13 20 7 11 - - 0.0
23/12:30am - - - - - ENE 13 20 7 11 - - 0.0
23/12:00am - - - - - ENE 13 22 7 12 - - 0.0
 
Date/Time
EST
Temp
°C
App
Temp
°C
Dew
Point
Rel
Hum
%
Delta-T
°C
Wind Press
QNH
hPa
Press
MSL
hPa
Rain
since 9 am
mm
Dir
 
Spd
km/h
Gust
km/h
Spd
kts
Gust
kts
22/11:30pm - - - - - ENE 15 24 8 13 - - 0.0
22/11:00pm - - - - - ENE 13 26 7 14 - - 0.0
22/10:30pm - - - - - ENE 15 22 8 12 - - 0.0
22/10:00pm - - - - - ENE 15 28 8 15 - - 0.0
22/09:30pm - - - - - ENE 13 24 7 13 - - 0.0
22/09:00pm - - - - - ENE 13 22 7 12 - - 0.0
22/08:30pm - - - - - ENE 13 20 7 11 - - 0.0
22/08:00pm - - - - - NE 11 20 6 11 - - 0.0
22/07:30pm - - - - - NE 13 20 7 11 - - 0.0
22/07:00pm - - - - - NE 15 24 8 13 - - 0.0
22/06:30pm - - - - - NE 17 30 9 16 - - 0.0
22/06:00pm - - - - - NE 15 26 8 14 - - 0.0
22/05:30pm - - - - - NE 11 17 6 9 - - 0.0
22/05:00pm - - - - - NE 13 24 7 13 - - 0.0
22/04:30pm - - - - - ENE 15 24 8 13 - - 0.0
22/04:00pm - - - - - E 11 19 6 10 - - 0.0
22/03:30pm - - - - - ENE 13 20 7 11 - - 0.0
22/03:00pm - - - - - E 13 24 7 13 - - 0.0
22/02:30pm - - - - - ENE 13 20 7 11 - - 0.0
22/02:00pm - - - - - ENE 15 24 8 13 - - 0.0
22/01:30pm - - - - - ENE 19 30 10 16 - - 0.0
22/01:00pm - - - - - ENE 17 32 9 17 - - 0.0
22/12:30pm - - - - - NE 15 28 8 15 - - 0.0
22/12:00pm - - - - - E 19 32 10 17 - - 0.0
22/11:30am - - - - - ENE 17 33 9 18 - - 0.0
22/11:00am - - - - - E 20 37 11 20 - - 0.0
22/10:30am - - - - - NE 17 30 9 16 - - 0.0
22/10:00am - - - - - ENE 17 26 9 14 - - 0.0
22/09:30am - - - - - E 19 32 10 17 - - 0.0
22/09:00am - - - - - ENE 22 33 12 18 - - 0.0
22/08:30am - - - - - E 17 26 9 14 - - 0.0
22/08:00am - - - - - E 15 24 8 13 - - 0.0
22/07:30am - - - - - E 9 17 5 9 - - 0.0
22/07:00am - - - - - E 11 17 6 9 - - 0.0
22/06:30am - - - - - E 11 17 6 9 - - 0.0
22/06:00am - - - - - E 11 15 6 8 - - 0.0
22/05:30am - - - - - E 13 19 7 10 - - 0.0
22/05:00am - - - - - E 11 17 6 9 - - 0.0
22/04:30am - - - - - ENE 13 17 7 9 - - 0.0
22/04:00am - - - - - ENE 11 17 6 9 - - 0.0
22/03:30am - - - - - E 9 15 5 8 - - 0.0
22/03:00am - - - - - E 13 20 7 11 - - 0.0
22/02:30am - - - - - E 11 19 6 10 - - 0.0
22/02:00am - - - - - E 13 19 7 10 - - 0.0
22/01:30am - - - - - E 11 19 6 10 - - 0.0
22/01:00am - - - - - E 9 15 5 8 - - 0.0
22/12:30am - - - - - E 13 20 7 11 - - 0.0
22/12:00am - - - - - ENE 13 24 7 13 - - 0.0
 
Date/Time
EST
Temp
°C
App
Temp
°C
Dew
Point
Rel
Hum
%
Delta-T
°C
Wind Press
QNH
hPa
Press
MSL
hPa
Rain
since 9 am
mm
Dir
 
Spd
km/h
Gust
km/h
Spd
kts
Gust
kts
21/11:30pm - - - - - ENE 9 13 5 7 - - 0.0
21/11:00pm - - - - - ENE 9 15 5 8 - - 0.0
21/10:30pm - - - - - E 9 13 5 7 - - 0.0
21/10:00pm - - - - - ENE 7 9 4 5 - - 0.0
21/09:30pm - - - - - N 4 7 2 4 - - 0.0
21/09:00pm - - - - - ENE 6 9 3 5 - - 0.0
21/08:30pm - - - - - CALM 0 0 0 0 - - 0.0
21/08:00pm - - - - - WNW 7 11 4 6 - - 0.0
21/07:30pm - - - - - WNW 11 13 6 7 - - 0.0
21/07:00pm - - - - - WNW 9 13 5 7 - - 0.0
21/06:30pm - - - - - WNW 9 13 5 7 - - 0.0
21/06:00pm - - - - - NW 11 17 6 9 - - 0.0
21/05:30pm - - - - - W 11 17 6 9 - - 0.0
21/05:00pm - - - - - WNW 9 17 5 9 - - 0.0
21/04:30pm - - - - - WNW 17 22 9 12 - - 0.0
21/04:00pm - - - - - NE 13 24 7 13 - - 0.0
21/03:30pm - - - - - NE 9 13 5 7 - - 0.0
21/03:00pm - - - - - NE 9 13 5 7 - - 0.0
21/02:30pm - - - - - NE 11 20 6 11 - - 0.0
21/02:00pm - - - - - NE 13 24 7 13 - - 0.0
21/01:30pm - - - - - NNE 9 19 5 10 - - 0.0
21/01:00pm - - - - - NE 11 19 6 10 - - 0.0
21/12:30pm - - - - - NE 13 22 7 12 - - 0.0
21/12:00pm - - - - - NE 9 17 5 9 - - 0.0
21/11:30am - - - - - ENE 9 17 5 9 - - 0.0
21/11:00am - - - - - NE 15 24 8 13 - - 0.0
21/10:30am - - - - - ENE 15 24 8 13 - - 0.0
21/10:00am - - - - - ENE 19 35 10 19 - - 0.0
21/09:30am - - - - - ENE 17 28 9 15 - - 0.0
21/09:00am - - - - - E 20 33 11 18 - - 0.0
21/08:30am - - - - - ENE 20 37 11 20 - - 0.0
21/08:00am - - - - - E 17 30 9 16 - - 0.0
21/07:30am - - - - - E 20 33 11 18 - - 0.0
21/07:00am - - - - - E 15 20 8 11 - - 0.0
21/06:30am - - - - - ENE 15 20 8 11 - - 0.0
21/06:00am - - - - - E 15 20 8 11 - - 0.0
21/05:30am - - - - - ENE 15 20 8 11 - - 0.0
21/05:00am - - - - - ENE 17 24 9 13 - - 0.0
21/04:30am - - - - - ENE 15 26 8 14 - - 0.0
21/04:00am - - - - - ENE 17 28 9 15 - - 0.0
21/03:30am - - - - - ENE 19 39 10 21 - - 0.0
21/03:00am - - - - - E 19 32 10 17 - - 0.0
21/02:30am - - - - - ENE 13 22 7 12 - - 0.0
21/02:00am - - - - - ENE 13 20 7 11 - - 0.0
21/01:30am - - - - - ENE 11 19 6 10 - - 0.0
21/01:00am - - - - - ENE 15 22 8 12 - - 0.0
21/12:30am - - - - - ENE 13 20 7 11 - - 0.0
21/12:00am - - - - - ENE 15 24 8 13 - - 0.0
 
Date/Time
EST
Temp
°C
App
Temp
°C
Dew
Point
Rel
Hum
%
Delta-T
°C
Wind Press
QNH
hPa
Press
MSL
hPa
Rain
since 9 am
mm
Dir
 
Spd
km/h
Gust
km/h
Spd
kts
Gust
kts
20/11:30pm - - - - - ENE 17 28 9 15 - - 0.0
20/11:00pm - - - - - ENE 17 28 9 15 - - 0.0
20/10:30pm - - - - - ENE 15 24 8 13 - - 0.0
20/10:00pm - - - - - ENE 17 28 9 15 - - 0.0
20/09:30pm - - - - - ENE 19 35 10 19 - - 0.0
20/09:00pm - - - - - ENE 13 22 7 12 - - 0.0
20/08:30pm - - - - - E 17 24 9 13 - - 0.0
20/08:00pm - - - - - SSW 11 13 6 7 - - 0.0
20/07:30pm - - - - - SW 11 13 6 7 - - 0.0
20/07:00pm - - - - - SSW 11 13 6 7 - - 0.0
20/06:30pm - - - - - SSW 11 13 6 7 - - 0.0

Other Formats:

Comma delimited format used in spreadsheet applications
http://www.bom.gov.au/fwo/IDQ60801/IDQ60801.95573.axf

JavaScript Object Notation format (JSON) in row-major order
http://www.bom.gov.au/fwo/IDQ60801/IDQ60801.95573.json